Time;durP1;ratioP1;P1;durP2;ratioP2;P2;SDS_P1;SDS_P2;PMS_P1;PMS_P2;Temp;Humidity;BMP_temperature;BMP_pressure;BME280_temperature;BME280_humidity;BME280_pressure;Samples;Min_cycle;Max_cycle;Signal;HPM_P1;HPM_P2
2024/01/20 00:00:11;;;;;;;12.43;6.57;;;;;;;13.83;70.55;98461.19;5141222;27;20239;-90
2024/01/20 00:02:37;;;;;;;15.47;5.87;;;;;;;13.38;70.66;98457.59;5122824;27;20182;-90
2024/01/20 00:05:02;;;;;;;12.63;5.20;;;;;;;13.32;69.21;98468.56;5123531;27;20186;-90
2024/01/20 00:07:28;;;;;;;12.60;4.70;;;;;;;13.40;67.74;98463.59;5123011;27;20177;-91
2024/01/20 00:09:53;;;;;;;10.63;4.33;;;;;;;13.09;67.91;98475.53;5141379;27;20182;-90
2024/01/20 00:12:18;;;;;;;8.27;4.03;;;;;;;13.15;67.78;98471.63;5122721;27;20555;-92
2024/01/20 00:14:44;;;;;;;14.30;4.40;;;;;;;13.20;67.29;98485.28;5122873;27;20225;-90
2024/01/20 00:17:09;;;;;;;11.97;4.17;;;;;;;13.23;67.24;98492.94;5141619;27;20253;-91
2024/01/20 00:19:35;;;;;;;10.47;4.60;;;;;;;13.23;67.15;98491.13;5122774;27;20616;-91
2024/01/20 00:22:00;;;;;;;10.47;4.70;;;;;;;13.35;66.77;98486.78;5123707;27;20213;-90
2024/01/20 00:24:26;;;;;;;13.27;5.20;;;;;;;13.20;67.48;98490.53;5123266;27;20631;-89
2024/01/20 00:26:51;;;;;;;8.40;4.17;;;;;;;13.23;66.65;98496.41;5122744;27;20175;-90
2024/01/20 00:29:17;;;;;;;9.27;4.30;;;;;;;13.38;66.42;98497.94;5140905;27;20666;-91
2024/01/20 00:31:42;;;;;;;6.03;3.57;;;;;;;13.60;65.14;98494.50;5141429;27;20185;-91
2024/01/20 00:34:08;;;;;;;11.23;4.57;;;;;;;13.63;64.35;98489.03;5122627;27;20262;-91
2024/01/20 00:36:33;;;;;;;11.97;4.07;;;;;;;13.60;64.30;98499.78;5123461;27;20224;-90
2024/01/20 00:38:58;;;;;;;8.10;3.40;;;;;;;13.67;63.67;98500.19;5140742;27;20195;-91
2024/01/20 00:41:24;;;;;;;9.40;3.13;;;;;;;13.64;63.29;98506.50;5123494;27;20214;-90
2024/01/20 00:43:50;;;;;;;9.67;3.77;;;;;;;13.60;62.99;98514.75;5122896;27;20213;-90
2024/01/20 00:46:15;;;;;;;13.90;3.77;;;;;;;13.60;62.69;98526.13;5121518;28;20212;-91
2024/01/20 00:48:40;;;;;;;12.53;4.73;;;;;;;13.69;62.00;98519.31;5119591;27;20194;-91
2024/01/20 00:51:06;;;;;;;8.27;3.23;;;;;;;13.39;62.28;98527.72;5137807;27;20186;-91
2024/01/20 00:53:31;;;;;;;9.03;4.37;;;;;;;13.23;62.95;98517.44;5119253;27;20209;-91
2024/01/20 00:55:57;;;;;;;9.73;3.87;;;;;;;13.12;63.28;98519.22;5137866;27;20186;-90
2024/01/20 00:58:22;;;;;;;9.27;3.63;;;;;;;13.16;63.08;98520.66;5137405;27;20186;-90
2024/01/20 01:00:48;;;;;;;9.10;3.27;;;;;;;13.22;62.86;98518.44;5118392;27;20545;-90
2024/01/20 01:03:13;;;;;;;6.67;3.00;;;;;;;13.36;61.99;98525.31;5098753;28;20215;-90
2024/01/20 01:05:39;;;;;;;11.30;3.40;;;;;;;13.41;61.84;98536.34;5102424;27;20180;-91
2024/01/20 01:08:04;;;;;;;6.43;2.93;;;;;;;13.44;61.60;98534.31;5137487;27;20178;-89
2024/01/20 01:10:30;;;;;;;6.73;3.07;;;;;;;13.46;61.44;98544.75;5118795;27;20606;-90
2024/01/20 01:12:55;;;;;;;8.10;3.03;;;;;;;13.44;60.76;98542.19;5137322;27;20209;-90
2024/01/20 01:15:21;;;;;;;6.53;3.27;;;;;;;13.43;60.58;98537.91;5136900;27;20182;-90
2024/01/20 01:17:47;;;;;;;6.77;2.60;;;;;;;13.39;60.32;98528.53;5118709;27;20179;-91
2024/01/20 01:20:12;;;;;;;27.23;10.00;;;;;;;13.24;60.28;98542.84;5119051;27;20629;-90
2024/01/20 01:22:38;;;;;;;12.47;4.63;;;;;;;13.15;59.91;98550.56;5118655;27;20192;-90
2024/01/20 01:25:04;;;;;;;10.50;5.53;;;;;;;13.13;60.18;98541.94;5119146;27;20641;-91
2024/01/20 01:27:29;;;;;;;7.77;3.07;;;;;;;12.92;59.58;98550.38;5118990;27;20273;-92
2024/01/20 01:29:55;;;;;;;5.77;2.90;;;;;;;12.89;60.32;98560.28;5118519;27;20281;-90
2024/01/20 01:32:20;;;;;;;7.53;3.17;;;;;;;12.89;59.97;98569.00;5119177;27;20180;-90
2024/01/20 01:34:46;;;;;;;7.80;3.60;;;;;;;12.91;60.12;98569.75;5136281;27;20655;-91
2024/01/20 01:37:11;;;;;;;9.00;3.20;;;;;;;12.93;60.12;98575.75;5119009;27;20179;-90
2024/01/20 01:39:37;;;;;;;6.30;2.60;;;;;;;12.81;60.12;98573.97;5118834;27;20741;-90
2024/01/20 01:42:02;;;;;;;6.00;2.83;;;;;;;12.81;60.21;98576.59;5118365;27;20178;-90
2024/01/20 01:44:28;;;;;;;5.97;3.00;;;;;;;12.83;60.14;98587.03;5118763;27;20511;-90
2024/01/20 01:46:53;;;;;;;10.33;3.83;;;;;;;12.84;60.01;98594.78;5118864;27;20193;-90
2024/01/20 01:49:21;;;;;;;8.27;3.60;;;;;;;12.86;60.08;98602.59;5118460;27;20194;-91
2024/01/20 01:51:48;;;;;;;7.70;3.47;;;;;;;12.94;59.89;98601.06;5118681;27;20178;-91
2024/01/20 01:54:14;;;;;;;6.00;3.30;;;;;;;12.92;59.90;98597.72;5118289;27;20225;-91
2024/01/20 01:56:41;;;;;;;7.40;3.57;;;;;;;12.89;59.47;98611.09;5118423;27;20273;-92
2024/01/20 01:59:07;;;;;;;12.20;3.40;;;;;;;12.83;59.60;98603.66;5134846;27;20190;-91
2024/01/20 02:01:32;;;;;;;10.43;4.20;;;;;;;12.78;59.77;98594.41;5136082;27;20253;-91
2024/01/20 02:03:59;;;;;;;12.37;4.23;;;;;;;12.77;59.79;98603.22;5118640;27;20258;-91
2024/01/20 02:06:25;;;;;;;8.27;3.27;;;;;;;12.64;60.15;98597.97;5136253;27;20174;-90
2024/01/20 02:08:50;;;;;;;9.00;3.90;;;;;;;12.64;60.50;98603.22;5118195;27;20177;-91
2024/01/20 02:11:17;;;;;;;8.00;3.77;;;;;;;12.61;60.52;98613.13;5136474;27;20211;-92
2024/01/20 02:13:42;;;;;;;9.63;3.63;;;;;;;12.58;60.51;98627.31;5135802;27;20295;-90
2024/01/20 02:16:08;;;;;;;12.57;3.80;;;;;;;12.56;60.74;98617.84;5118018;27;20206;-90
2024/01/20 02:18:33;;;;;;;10.23;5.90;;;;;;;12.49;60.83;98611.34;5098985;28;20185;-90
2024/01/20 02:20:59;;;;;;;7.53;4.17;;;;;;;12.34;61.38;98621.94;5115175;28;20219;-91
2024/01/20 02:23:24;;;;;;;64.80;24.37;;;;;;;12.37;60.98;98631.41;5119473;27;20207;-91
2024/01/20 02:25:50;;;;;;;25.07;10.70;;;;;;;12.33;61.09;98627.31;5135915;27;20252;-91
2024/01/20 02:28:15;;;;;;;12.70;4.97;;;;;;;12.26;61.04;98639.19;5117169;27;20629;-91
2024/01/20 02:30:42;;;;;;;5.57;2.40;;;;;;;12.26;60.80;98644.44;5117447;27;20187;-90
2024/01/20 02:33:08;;;;;;;6.50;2.63;;;;;;;12.31;59.96;98634.47;5135058;27;20716;-90
2024/01/20 02:35:33;;;;;;;90.40;30.37;;;;;;;12.28;58.66;98627.63;5117981;27;20263;-90
2024/01/20 02:38:01;;;;;;;89.87;30.97;;;;;;;12.26;58.76;98620.81;5112578;28;20187;-92
2024/01/20 02:40:27;;;;;;;9.60;4.60;;;;;;;12.14;58.93;98618.97;5097051;28;20176;-90
2024/01/20 02:42:52;;;;;;;3.20;1.73;;;;;;;12.06;58.39;98630.00;5115429;28;20183;-90
2024/01/20 02:45:18;;;;;;;52.67;18.73;;;;;;;11.94;58.98;98638.69;5114314;27;20568;-91
2024/01/20 02:47:44;;;;;;;42.50;14.87;;;;;;;11.82;59.17;98639.50;5135147;27;20800;-91
2024/01/20 02:50:10;;;;;;;35.33;12.20;;;;;;;11.88;58.87;98625.13;5117100;27;20183;-90
2024/01/20 02:52:35;;;;;;;18.43;6.50;;;;;;;11.84;58.34;98636.78;5135517;27;20632;-91
2024/01/20 02:55:01;;;;;;;26.07;10.57;;;;;;;11.90;59.04;98641.63;5135498;27;20257;-92
2024/01/20 02:57:26;;;;;;;102.83;42.80;;;;;;;11.91;58.97;98648.56;5117280;27;20271;-91
2024/01/20 02:59:52;;;;;;;27.77;9.77;;;;;;;12.02;58.56;98651.31;5135002;27;20254;-91
2024/01/20 03:02:17;;;;;;;8.03;3.47;;;;;;;12.03;58.04;98648.59;5135489;27;20604;-91
2024/01/20 03:04:43;;;;;;;37.40;11.87;;;;;;;11.99;57.90;98654.16;5117064;27;20203;-92
2024/01/20 03:07:09;;;;;;;33.37;10.00;;;;;;;11.95;58.33;98660.56;5117002;27;20183;-91
2024/01/20 03:09:35;;;;;;;37.33;13.70;;;;;;;11.97;58.12;98669.19;5134848;27;20183;-91
2024/01/20 03:12:01;;;;;;;37.03;12.93;;;;;;;12.00;58.27;98677.69;5134867;27;20265;-91
2024/01/20 03:14:27;;;;;;;21.33;7.87;;;;;;;12.08;58.21;98679.81;5135492;27;20278;-91
2024/01/20 03:16:52;;;;;;;22.13;8.90;;;;;;;12.06;57.46;98684.31;5116988;27;20199;-92
2024/01/20 03:19:19;;;;;;;21.23;7.73;;;;;;;11.91;58.21;98686.16;5116702;28;20194;-91
2024/01/20 03:21:44;;;;;;;36.07;13.30;;;;;;;11.89;57.21;98679.34;5116895;27;20633;-90
2024/01/20 03:24:10;;;;;;;38.50;14.97;;;;;;;11.76;57.69;98678.44;5134517;27;20188;-91
2024/01/20 03:26:35;;;;;;;13.23;4.43;;;;;;;11.79;57.60;98686.13;5116988;27;20270;-91
2024/01/20 03:29:01;;;;;;;9.00;4.03;;;;;;;11.66;57.88;98697.38;5134455;27;20187;-91
2024/01/20 03:31:26;;;;;;;15.33;6.73;;;;;;;11.71;57.57;98711.06;5116580;28;20175;-90
2024/01/20 03:33:52;;;;;;;10.60;3.07;;;;;;;11.61;57.32;98712.56;5134745;28;20656;-91
2024/01/20 03:36:17;;;;;;;6.57;3.13;;;;;;;11.56;57.37;98717.28;5116434;28;20184;-90
2024/01/20 03:38:43;;;;;;;7.13;2.13;;;;;;;11.47;57.78;98711.78;5116517;28;20189;-91
2024/01/20 03:41:08;;;;;;;7.40;2.10;;;;;;;11.28;58.63;98716.47;5117581;28;20220;-90
2024/01/20 03:43:34;;;;;;;3.27;1.93;;;;;;;11.26;58.20;98711.34;5135008;28;20291;-91
2024/01/20 03:45:59;;;;;;;7.53;2.37;;;;;;;11.17;58.34;98719.75;5116387;28;20174;-91
2024/01/20 03:48:24;;;;;;;5.80;2.77;;;;;;;11.20;58.67;98714.31;5116248;28;20624;-91
2024/01/20 03:50:50;;;;;;;9.80;3.30;;;;;;;11.26;58.54;98732.31;5116552;28;20247;-91
2024/01/20 03:53:15;;;;;;;10.57;2.80;;;;;;;11.32;58.38;98733.72;5116253;28;20643;-91
2024/01/20 03:55:41;;;;;;;6.20;2.60;;;;;;;11.28;58.63;98748.81;5115990;28;20183;-90
2024/01/20 03:58:06;;;;;;;11.00;4.37;;;;;;;11.10;59.38;98755.19;5116427;28;20246;-92
2024/01/20 04:00:32;;;;;;;3.53;1.60;;;;;;;11.02;60.08;98760.03;5116377;28;20175;-91
2024/01/20 04:02:57;;;;;;;6.90;3.47;;;;;;;11.10;60.38;98758.66;5116517;28;20171;-90
2024/01/20 04:05:23;;;;;;;4.53;1.67;;;;;;;11.26;59.81;98760.34;5134406;28;20174;-90
2024/01/20 04:07:48;;;;;;;4.27;2.10;;;;;;;11.23;59.46;98769.22;5134401;28;20222;-90
2024/01/20 04:10:14;;;;;;;4.17;1.93;;;;;;;11.22;59.21;98770.16;5115912;28;20655;-91
2024/01/20 04:12:40;;;;;;;6.17;1.67;;;;;;;11.14;59.23;98779.44;5133971;28;20293;-91
2024/01/20 04:15:06;;;;;;;2.50;1.40;;;;;;;11.16;59.40;98791.53;5134220;27;20178;-90
2024/01/20 04:17:32;;;;;;;21.50;7.33;;;;;;;11.24;58.81;98786.63;5134228;28;20608;-89
2024/01/20 04:19:57;;;;;;;11.20;4.10;;;;;;;11.27;59.02;98793.50;5133923;28;20191;-91
2024/01/20 04:22:22;;;;;;;6.60;2.17;;;;;;;11.45;58.74;98797.63;5117624;27;20695;-90
2024/01/20 04:24:48;;;;;;;11.53;3.43;;;;;;;11.53;58.37;98805.88;5138366;27;20256;-91
2024/01/20 04:27:14;;;;;;;7.40;2.87;;;;;;;11.57;57.10;98818.72;5120288;27;20167;-93
2024/01/20 04:29:39;;;;;;;6.50;2.53;;;;;;;11.56;57.83;98821.41;5133594;27;20226;-91
2024/01/20 04:32:05;;;;;;;2.30;1.23;;;;;;;11.62;57.34;98826.28;5099852;28;20223;-91
2024/01/20 04:34:30;;;;;;;2.73;1.63;;;;;;;11.58;57.38;98828.25;5099379;28;20603;-92
2024/01/20 04:36:56;;;;;;;3.87;1.33;;;;;;;11.58;56.99;98844.00;5136221;27;20221;-90
2024/01/20 04:39:21;;;;;;;3.57;1.20;;;;;;;11.48;56.79;98850.75;5138414;27;20179;-89
2024/01/20 04:41:47;;;;;;;3.43;1.30;;;;;;;11.48;57.14;98861.25;5137651;27;20175;-90
2024/01/20 04:44:12;;;;;;;3.03;1.53;;;;;;;11.52;56.85;98861.94;5119555;27;20186;-90
2024/01/20 04:46:38;;;;;;;11.37;4.17;;;;;;;11.47;56.83;98871.84;5137419;27;20183;-89
2024/01/20 04:49:03;;;;;;;5.40;2.60;;;;;;;11.34;57.42;98868.28;5137583;27;20193;-89
2024/01/20 04:51:29;;;;;;;2.43;1.30;;;;;;;11.44;57.21;98867.63;5137714;27;20182;-90
2024/01/20 04:53:54;;;;;;;4.20;1.43;;;;;;;11.50;57.14;98874.31;5119183;27;20629;-91
2024/01/20 04:56:22;;;;;;;7.50;2.60;;;;;;;11.44;57.18;98875.50;5138276;27;20182;-91
2024/01/20 04:58:48;;;;;;;2.93;1.53;;;;;;;11.37;57.05;98878.59;5137136;27;20178;-90
2024/01/20 05:01:13;;;;;;;6.43;1.60;;;;;;;11.36;56.16;98883.00;5137268;27;20269;-91
2024/01/20 05:03:39;;;;;;;4.63;1.50;;;;;;;11.29;56.88;98886.09;5137440;27;20167;-90
2024/01/20 05:06:05;;;;;;;3.60;1.93;;;;;;;11.41;56.08;98891.44;5137704;27;20672;-90
2024/01/20 05:08:31;;;;;;;3.33;1.30;;;;;;;11.37;56.28;98899.59;5119082;27;20609;-92
2024/01/20 05:10:56;;;;;;;4.10;2.00;;;;;;;11.26;56.82;98897.59;5136768;27;20235;-90
2024/01/20 05:13:22;;;;;;;3.23;1.30;;;;;;;11.28;56.08;98910.63;5137351;27;20191;-91
2024/01/20 05:15:47;;;;;;;2.27;1.20;;;;;;;11.27;55.90;98912.38;5136568;27;20281;-90
2024/01/20 05:18:13;;;;;;;3.30;1.23;;;;;;;11.24;55.98;98920.44;5119026;27;20544;-90
2024/01/20 05:20:38;;;;;;;5.67;1.47;;;;;;;11.08;55.99;98928.34;5136775;27;20183;-91
2024/01/20 05:23:03;;;;;;;4.07;1.47;;;;;;;11.03;56.25;98934.84;5118932;27;20167;-90
2024/01/20 05:25:29;;;;;;;3.73;1.60;;;;;;;11.11;56.24;98937.81;5136771;27;20553;-90
2024/01/20 05:27:55;;;;;;;3.20;1.40;;;;;;;11.13;55.85;98941.22;5137083;27;20178;-91
2024/01/20 05:30:21;;;;;;;2.70;1.10;;;;;;;11.03;55.99;98953.19;5132302;27;20184;-89
2024/01/20 05:32:46;;;;;;;2.63;1.13;;;;;;;11.13;56.16;98956.13;5097768;28;20629;-91
2024/01/20 05:35:12;;;;;;;2.40;1.23;;;;;;;11.19;55.78;98959.22;5106015;27;20183;-90
2024/01/20 05:37:37;;;;;;;3.13;1.47;;;;;;;11.22;55.47;98963.44;5118289;27;20186;-90
2024/01/20 05:40:04;;;;;;;2.67;1.20;;;;;;;11.25;54.24;98974.63;5118508;27;20179;-90
2024/01/20 05:42:30;;;;;;;2.17;1.03;;;;;;;11.09;54.82;98976.41;5136270;27;20172;-90
2024/01/20 05:44:55;;;;;;;2.77;1.20;;;;;;;11.07;54.40;98981.78;5118267;27;20175;-90
2024/01/20 05:47:21;;;;;;;5.30;2.23;;;;;;;10.98;55.13;98977.03;5118039;27;20186;-90
2024/01/20 05:49:46;;;;;;;2.83;1.40;;;;;;;11.05;54.56;98990.66;5119410;27;20171;-90
2024/01/20 05:52:12;;;;;;;2.43;1.30;;;;;;;11.03;54.42;98984.66;5118958;27;20204;-90
2024/01/20 05:54:37;;;;;;;3.27;1.67;;;;;;;11.00;54.88;98987.44;5136087;27;20535;-90
2024/01/20 05:57:03;;;;;;;3.13;1.30;;;;;;;10.98;55.71;99000.63;5118231;27;20210;-91
2024/01/20 05:59:28;;;;;;;7.77;0.90;;;;;;;11.07;55.97;98994.03;5136207;27;20604;-91
2024/01/20 06:01:54;;;;;;;2.50;1.17;;;;;;;11.09;56.00;99003.50;5118279;27;20186;-91
2024/01/20 06:04:19;;;;;;;2.23;1.27;;;;;;;11.18;55.86;99023.13;5136686;27;20179;-93
2024/01/20 06:06:46;;;;;;;2.13;1.20;;;;;;;11.24;55.55;99022.75;5136178;27;20599;-91
2024/01/20 06:09:11;;;;;;;2.70;1.30;;;;;;;11.20;56.02;99023.88;5118157;27;20541;-92
2024/01/20 06:11:37;;;;;;;2.70;1.30;;;;;;;11.13;56.57;99030.41;5118028;27;20175;-92
2024/01/20 06:14:02;;;;;;;2.10;1.37;;;;;;;11.10;56.42;99031.44;5117882;27;20198;-92
2024/01/20 06:16:28;;;;;;;3.60;1.80;;;;;;;11.05;57.50;99043.13;5117989;27;20532;-91
2024/01/20 06:18:54;;;;;;;2.73;1.30;;;;;;;10.98;57.68;99049.59;5135964;27;20189;-90
2024/01/20 06:21:23;;;;;;;4.17;1.60;;;;;;;10.93;57.55;99062.97;5118024;27;20183;-90
2024/01/20 06:23:51;;;;;;;2.93;1.13;;;;;;;10.91;57.87;99070.09;5117856;27;20198;-91
2024/01/20 06:26:17;;;;;;;5.83;2.27;;;;;;;10.93;57.73;99077.88;5118393;27;20270;-90
2024/01/20 06:28:43;;;;;;;2.93;1.53;;;;;;;10.98;57.57;99078.47;5135973;27;20206;-91
2024/01/20 06:31:09;;;;;;;3.77;1.63;;;;;;;11.00;58.24;99100.22;5118050;27;20192;-90
2024/01/20 06:33:35;;;;;;;2.70;1.63;;;;;;;11.00;58.27;99094.97;5135361;27;20285;-91
2024/01/20 06:36:00;;;;;;;4.77;1.90;;;;;;;11.03;57.68;99094.81;5117766;27;20282;-91
2024/01/20 06:38:28;;;;;;;2.97;1.53;;;;;;;10.99;58.80;99095.91;5135805;27;20175;-91
2024/01/20 06:40:54;;;;;;;3.27;1.77;;;;;;;10.86;59.01;99102.75;5135626;27;20186;-91
2024/01/20 06:43:19;;;;;;;5.97;1.77;;;;;;;10.77;59.73;99103.25;5135559;27;20231;-93
2024/01/20 06:45:46;;;;;;;3.73;1.33;;;;;;;10.77;59.94;99108.50;5116803;27;20206;-92
2024/01/20 06:48:12;;;;;;;3.30;1.70;;;;;;;10.78;59.79;99115.41;5117236;27;20572;-93
2024/01/20 06:50:43;;;;;;;3.47;2.00;;;;;;;10.85;59.87;99122.00;5135602;27;20189;-93
2024/01/20 06:53:10;;;;;;;4.63;1.70;;;;;;;10.79;60.82;99120.59;5117369;27;20194;-93
2024/01/20 06:56:13;;;;;;;4.30;2.20;;;;;;;10.88;60.56;99127.09;5135576;27;20692;-93
2024/01/20 06:58:39;;;;;;;4.23;2.07;;;;;;;10.81;61.30;99128.38;5135691;27;20167;-93
2024/01/20 07:01:04;;;;;;;4.63;2.23;;;;;;;10.79;61.24;99133.69;5135042;27;20182;-93
2024/01/20 07:03:30;;;;;;;4.27;1.97;;;;;;;10.75;61.11;99141.78;5117549;27;20171;-93
2024/01/20 07:05:58;;;;;;;6.70;3.03;;;;;;;10.74;61.81;99143.59;5117309;27;20538;-91
2024/01/20 07:08:23;;;;;;;3.00;1.93;;;;;;;10.69;61.91;99145.56;5135434;27;20195;-92
2024/01/20 07:10:50;;;;;;;3.80;2.10;;;;;;;10.56;61.81;99144.53;5117144;27;20185;-91
2024/01/20 07:13:15;;;;;;;3.47;1.93;;;;;;;10.36;61.48;99153.44;5135115;27;20199;-91
2024/01/20 07:15:40;;;;;;;5.20;2.60;;;;;;;10.22;61.25;99160.31;5117351;27;20277;-91
2024/01/20 07:18:06;;;;;;;5.33;2.17;;;;;;;10.11;61.59;99162.59;5135399;27;20167;-91
2024/01/20 07:20:31;;;;;;;5.37;2.40;;;;;;;10.13;61.42;99166.00;5134880;27;20631;-92
2024/01/20 07:22:57;;;;;;;5.20;2.20;;;;;;;10.14;60.31;99170.34;5116049;27;20615;-92
2024/01/20 07:25:22;;;;;;;2.97;1.70;;;;;;;9.93;60.91;99187.06;5096673;28;20179;-92
2024/01/20 07:27:48;;;;;;;6.37;2.70;;;;;;;9.84;61.47;99196.22;5114406;28;20187;-93
2024/01/20 07:30:13;;;;;;;3.30;1.93;;;;;;;9.71;61.41;99203.81;5099787;28;20277;-92
2024/01/20 07:32:40;;;;;;;6.43;2.27;;;;;;;9.72;61.86;99209.91;5135324;27;20178;-93
2024/01/20 07:35:07;;;;;;;3.43;1.77;;;;;;;9.63;61.76;99210.34;5112776;28;20187;-92
2024/01/20 07:37:35;;;;;;;3.67;1.87;;;;;;;9.43;62.74;99215.66;5114783;28;20183;-92
2024/01/20 07:40:03;;;;;;;3.17;1.73;;;;;;;9.45;63.19;99221.66;5112983;28;20568;-92
2024/01/20 07:42:28;;;;;;;2.90;1.50;;;;;;;9.41;63.83;99235.81;5116785;28;20577;-91
2024/01/20 07:44:54;;;;;;;4.97;2.03;;;;;;;9.35;63.68;99230.88;5134702;28;20182;-93
2024/01/20 07:47:19;;;;;;;3.37;1.40;;;;;;;9.28;64.09;99238.13;5116758;28;20175;-92
2024/01/20 07:49:45;;;;;;;2.63;1.03;;;;;;;9.05;64.42;99244.41;5134705;28;20182;-92
2024/01/20 07:52:10;;;;;;;2.17;1.37;;;;;;;8.76;64.82;99252.69;5116707;28;20178;-89
2024/01/20 07:54:35;;;;;;;1.97;0.83;;;;;;;8.83;64.02;99263.72;5117079;28;20628;-92
2024/01/20 07:57:01;;;;;;;1.70;0.80;;;;;;;8.70;63.79;99257.34;5119514;27;20274;-92
2024/01/20 07:59:29;;;;;;;3.63;1.00;;;;;;;8.26;64.57;99277.44;5120427;27;20188;-93
2024/01/20 08:01:54;;;;;;;1.73;0.90;;;;;;;8.32;64.64;99285.91;5120414;27;20184;-92
2024/01/20 08:04:21;;;;;;;1.60;0.70;;;;;;;8.27;64.62;99294.84;5120412;27;20555;-92
2024/01/20 08:06:46;;;;;;;1.60;0.77;;;;;;;8.22;65.39;99312.41;5120439;27;20179;-90
2024/01/20 08:09:12;;;;;;;2.60;1.10;;;;;;;7.90;66.43;99319.78;5120410;27;20609;-90
2024/01/20 08:11:37;;;;;;;1.37;0.60;;;;;;;7.74;66.74;99330.84;5119939;27;20195;-89
2024/01/20 08:14:03;;;;;;;1.13;0.70;;;;;;;7.79;66.37;99337.59;5138172;27;20195;-90
2024/01/20 08:16:28;;;;;;;1.67;0.97;;;;;;;7.83;67.34;99336.56;5120362;27;20174;-92
2024/01/20 08:18:55;;;;;;;0.87;0.50;;;;;;;7.57;67.51;99351.50;5120268;27;20175;-92
2024/01/20 08:21:21;;;;;;;1.67;0.80;;;;;;;7.65;68.22;99362.50;5119962;27;20589;-90
2024/01/20 08:23:47;;;;;;;2.33;0.93;;;;;;;7.61;68.36;99369.59;5120226;27;20177;-91
2024/01/20 08:26:13;;;;;;;2.63;1.20;;;;;;;7.62;68.16;99366.09;5137931;27;20609;-92
2024/01/20 08:28:39;;;;;;;4.47;1.37;;;;;;;7.58;68.75;99377.53;5119958;27;20613;-91
2024/01/20 08:31:05;;;;;;;2.60;1.17;;;;;;;7.39;69.07;99381.69;5138352;27;20185;-92
2024/01/20 08:33:30;;;;;;;7.50;2.77;;;;;;;7.31;69.02;99383.75;5119823;27;20199;-89
2024/01/20 08:35:56;;;;;;;10.17;3.87;;;;;;;7.20;69.53;99397.16;5137867;27;20215;-91
2024/01/20 08:38:21;;;;;;;31.27;8.67;;;;;;;7.35;68.82;99404.44;5119887;27;20190;-93
2024/01/20 08:40:47;;;;;;;30.77;10.73;;;;;;;7.49;68.00;99409.16;5138193;27;20308;-92
2024/01/20 08:43:14;;;;;;;6.87;2.53;;;;;;;7.47;68.09;99416.16;5119735;27;20179;-92
2024/01/20 08:45:40;;;;;;;25.40;10.60;;;;;;;7.39;68.33;99426.03;5119874;27;20186;-93
2024/01/20 08:48:05;;;;;;;24.70;8.50;;;;;;;7.37;68.98;99435.66;5119698;27;20179;-92
2024/01/20 08:50:31;;;;;;;9.97;4.90;;;;;;;7.36;68.93;99441.81;5119482;27;20197;-91
2024/01/20 08:52:56;;;;;;;7.43;3.17;;;;;;;7.42;67.91;99444.16;5119413;27;20190;-91
2024/01/20 08:55:22;;;;;;;6.47;3.70;;;;;;;7.26;67.92;99443.84;5137495;27;20175;-91
2024/01/20 08:57:47;;;;;;;1.10;0.60;;;;;;;7.12;68.06;99438.28;5137391;27;20258;-92
2024/01/20 09:00:16;;;;;;;4.57;1.50;;;;;;;7.07;68.51;99432.38;5118991;27;20175;-91
2024/01/20 09:02:42;;;;;;;11.70;5.43;;;;;;;6.98;69.36;99434.41;5119496;27;20179;-90
2024/01/20 09:05:08;;;;;;;6.33;2.07;;;;;;;6.91;68.86;99441.59;5119258;27;20179;-92
2024/01/20 09:07:33;;;;;;;3.00;1.37;;;;;;;6.93;68.61;99445.00;5118585;27;20648;-91
2024/01/20 09:10:00;;;;;;;2.80;0.90;;;;;;;6.75;68.64;99458.63;5137362;27;20207;-92
2024/01/20 09:12:25;;;;;;;2.27;0.87;;;;;;;6.71;68.85;99467.41;5137296;27;20175;-93
2024/01/20 09:14:51;;;;;;;0.90;0.57;;;;;;;6.82;67.56;99474.00;5119330;27;20199;-92
2024/01/20 09:17:16;;;;;;;2.93;1.00;;;;;;;6.71;68.04;99478.69;5118868;27;20192;-94
2024/01/20 09:19:42;;;;;;;1.50;0.87;;;;;;;6.71;68.02;99483.91;5120175;27;20175;-93
2024/01/20 09:22:08;;;;;;;0.80;0.70;;;;;;;6.68;68.38;99486.59;5119069;27;20179;-93
2024/01/20 09:24:33;;;;;;;1.27;0.70;;;;;;;6.57;68.73;99499.13;5119284;27;20239;-94
2024/01/20 09:27:00;;;;;;;1.63;0.83;;;;;;;6.68;68.31;99499.63;5119131;27;20182;-94
2024/01/20 09:29:26;;;;;;;0.83;0.60;;;;;;;6.67;68.07;99500.53;5118816;27;20200;-94
2024/01/20 09:31:51;;;;;;;1.77;0.80;;;;;;;6.66;68.36;99498.81;5119170;27;20171;-94
2024/01/20 09:34:17;;;;;;;2.17;1.10;;;;;;;6.61;67.90;99498.13;5118691;27;20636;-95
2024/01/20 09:36:43;;;;;;;3.63;1.47;;;;;;;6.61;67.75;99485.09;5119462;27;20182;-94
2024/01/20 09:39:11;;;;;;;2.00;1.17;;;;;;;6.68;67.20;99491.81;5119344;27;20175;-94
2024/01/20 09:41:46;;;;;;;2.97;1.37;;;;;;;6.57;67.61;99499.13;5119467;27;20603;-96
2024/01/20 09:44:14;;;;;;;1.70;0.87;;;;;;;6.29;68.09;99510.41;5118979;27;20165;-95
2024/01/20 09:46:40;;;;;;;1.63;0.90;;;;;;;6.29;68.38;99511.25;5119350;27;20175;-94
2024/01/20 09:49:06;;;;;;;0.90;0.60;;;;;;;6.28;67.88;99519.97;5118830;27;20182;-95
2024/01/20 09:51:31;;;;;;;1.20;0.73;;;;;;;6.15;68.72;99516.00;5118877;27;20183;-95
2024/01/20 09:54:00;;;;;;;1.90;0.77;;;;;;;6.14;68.83;99509.09;5119313;27;20231;-95
2024/01/20 09:56:29;;;;;;;2.60;0.80;;;;;;;5.97;69.71;99532.16;5118994;27;20561;-95
2024/01/20 09:59:03;;;;;;;1.13;0.83;;;;;;;5.94;69.55;99533.09;5118925;27;20190;-95
2024/01/20 10:01:29;;;;;;;3.47;1.20;;;;;;;5.94;70.03;99527.03;5119723;27;20199;-95
2024/01/20 10:04:00;;;;;;;1.73;0.80;;;;;;;5.99;69.92;99527.75;5118670;27;20178;-95
2024/01/20 10:06:26;;;;;;;1.60;1.00;;;;;;;5.76;70.61;99524.91;5137107;27;20179;-93
2024/01/20 10:08:52;;;;;;;0.40;0.40;;;;;;;5.62;70.62;99524.41;5119433;27;20269;-95
2024/01/20 10:11:18;;;;;;;2.97;0.93;;;;;;;5.67;70.96;99514.72;5118389;27;20225;-95
2024/01/20 10:13:43;;;;;;;1.90;1.03;;;;;;;5.61;70.76;99518.34;5118636;27;20206;-95
2024/01/20 10:16:09;;;;;;;0.80;0.63;;;;;;;5.62;71.37;99514.84;5118342;27;20186;-94
2024/01/20 10:18:35;;;;;;;1.40;0.73;;;;;;;5.54;71.56;99525.47;5118042;27;20212;-94
2024/01/20 10:21:05;;;;;;;0.87;0.50;;;;;;;5.52;71.59;99524.66;5117416;27;20173;-94
2024/01/20 10:23:35;;;;;;;0.70;0.50;;;;;;;5.41;71.92;99534.47;5118374;27;20175;-95
2024/01/20 10:26:05;;;;;;;0.93;0.60;;;;;;;5.54;71.62;99532.41;5118018;27;20212;-93
2024/01/20 10:28:32;;;;;;;1.33;0.63;;;;;;;5.44;71.87;99542.19;5135954;27;20193;-93
2024/01/20 10:30:58;;;;;;;0.87;0.67;;;;;;;5.50;71.86;99549.81;5117928;27;20202;-94
2024/01/20 10:33:24;;;;;;;2.07;1.20;;;;;;;5.55;72.06;99550.56;5117902;27;20197;-94
2024/01/20 10:35:51;;;;;;;2.70;1.33;;;;;;;5.54;71.15;99548.88;5135677;27;20666;-94
2024/01/20 10:38:21;;;;;;;2.33;0.87;;;;;;;5.51;71.74;99553.28;5117907;27;20592;-93
2024/01/20 10:40:57;;;;;;;1.20;0.73;;;;;;;5.65;72.03;99553.78;5135527;27;20181;-94
2024/01/20 10:43:26;;;;;;;1.20;0.77;;;;;;;5.62;72.35;99553.00;5117768;27;20168;-94
2024/01/20 10:46:16;;;;;;;1.67;1.03;;;;;;;5.55;72.22;99545.34;5117569;27;20531;-93
2024/01/20 10:48:47;;;;;;;1.53;0.90;;;;;;;5.71;72.07;99547.56;5136191;27;20167;-93
2024/01/20 10:51:14;;;;;;;1.50;0.77;;;;;;;5.83;71.76;99553.31;5117683;27;20265;-93
2024/01/20 10:53:41;;;;;;;2.07;0.93;;;;;;;6.00;70.65;99552.88;5118285;27;20242;-94
2024/01/20 10:56:08;;;;;;;1.47;0.97;;;;;;;5.97;70.07;99563.38;5135415;27;20171;-93
2024/01/20 10:58:38;;;;;;;1.20;0.80;;;;;;;6.00;70.72;99565.91;5117514;27;20681;-93
2024/01/20 11:01:05;;;;;;;1.83;0.77;;;;;;;6.02;70.23;99562.34;5135921;27;20170;-93
2024/01/20 11:03:32;;;;;;;1.47;0.70;;;;;;;5.75;71.36;99567.41;5135557;27;20562;-93
2024/01/20 11:05:57;;;;;;;1.23;0.60;;;;;;;5.76;70.84;99559.56;5117487;27;20185;-92
2024/01/20 11:08:25;;;;;;;1.03;0.60;;;;;;;5.64;71.59;99574.59;5135710;27;20192;-92
2024/01/20 11:10:53;;;;;;;1.40;0.70;;;;;;;5.67;71.28;99579.75;5135197;27;20223;-94
2024/01/20 11:13:26;;;;;;;1.37;0.70;;;;;;;5.43;72.41;99582.06;5135379;27;20225;-92
2024/01/20 11:15:52;;;;;;;0.93;0.50;;;;;;;5.85;70.66;99576.69;5122660;27;20508;-92
2024/01/20 11:18:22;;;;;;;1.20;0.60;;;;;;;5.94;70.88;99573.84;5114553;28;20224;-92
2024/01/20 11:20:59;;;;;;;1.03;0.63;;;;;;;6.02;70.61;99577.97;5096609;28;20175;-91
2024/01/20 11:23:26;;;;;;;1.43;0.70;;;;;;;5.88;70.70;99576.59;5134344;27;20189;-93
2024/01/20 11:25:52;;;;;;;1.00;0.77;;;;;;;6.01;70.42;99570.19;5116696;28;20186;-94
2024/01/20 11:28:32;;;;;;;1.43;0.90;;;;;;;5.84;70.53;99586.22;5134792;27;20167;-91